Time;durP1;ratioP1;P1;durP2;ratioP2;P2;SDS_P1;SDS_P2;PMS_P1;PMS_P2;Temp;Humidity;BMP_temperature;BMP_pressure;BME280_temperature;BME280_humidity;BME280_pressure;Samples;Min_cycle;Max_cycle;Signal;HPM_P1;HPM_P2
2023/07/18 00:01:48;;;;;;;7.30;3.05;;;23.80;81.10;;;;;;5088689;28;20059;-64
2023/07/18 00:04:14;;;;;;;6.65;3.00;;;23.80;82.00;;;;;;5090911;28;20157;-64
2023/07/18 00:06:41;;;;;;;6.22;2.97;;;23.90;81.10;;;;;;5092962;28;20036;-64
2023/07/18 00:09:08;;;;;;;6.30;2.70;;;23.80;81.20;;;;;;5090048;28;20040;-70
2023/07/18 00:11:33;;;;;;;5.72;2.50;;;24.10;78.90;;;;;;5087228;28;20048;-65
2023/07/18 00:13:59;;;;;;;4.85;2.42;;;23.90;78.50;;;;;;5090430;28;20040;-64
2023/07/18 00:16:25;;;;;;;6.38;2.92;;;23.90;81.20;;;;;;5092106;28;20039;-64
2023/07/18 00:18:51;;;;;;;5.70;2.63;;;23.90;78.80;;;;;;5078215;28;20052;-64
2023/07/18 00:21:17;;;;;;;6.20;2.45;;;23.90;81.20;;;;;;5082350;28;20062;-64
2023/07/18 00:23:43;;;;;;;5.82;2.78;;;24.10;81.30;;;;;;5088309;28;20033;-63
2023/07/18 00:26:09;;;;;;;6.88;2.97;;;23.90;81.20;;;;;;5079827;28;20090;-64
2023/07/18 00:28:34;;;;;;;7.90;2.78;;;23.90;81.40;;;;;;5091197;28;20078;-64
2023/07/18 00:31:02;;;;;;;6.40;2.60;;;23.80;80.40;;;;;;5093303;28;20127;-64
2023/07/18 00:33:28;;;;;;;5.93;2.88;;;24.10;79.20;;;;;;5092769;28;20044;-64
2023/07/18 00:35:54;;;;;;;7.95;3.03;;;24.00;81.30;;;;;;5096134;28;20044;-62
2023/07/18 00:38:20;;;;;;;7.03;2.78;;;23.80;81.40;;;;;;5095767;28;20405;-63
2023/07/18 00:40:49;;;;;;;6.93;2.70;;;23.80;78.70;;;;;;5093916;28;20051;-65
2023/07/18 00:43:15;;;;;;;5.70;2.50;;;23.80;81.20;;;;;;5095935;28;20048;-63
2023/07/18 00:45:44;;;;;;;6.60;2.47;;;24.00;78.90;;;;;;5094415;28;20404;-71
2023/07/18 00:48:10;;;;;;;6.43;2.47;;;23.90;82.10;;;;;;5075589;28;20055;-70
2023/07/18 00:50:36;;;;;;;7.75;2.75;;;23.80;82.10;;;;;;5079087;28;20457;-64
2023/07/18 00:53:02;;;;;;;7.25;2.70;;;23.80;78.60;;;;;;5067453;28;20052;-68
2023/07/18 00:55:27;;;;;;;7.05;2.78;;;23.70;81.20;;;;;;5075132;28;20090;-69
2023/07/18 00:57:53;;;;;;;6.80;2.72;;;23.80;81.90;;;;;;5071718;28;20604;-73
2023/07/18 01:00:22;;;;;;;4.95;2.47;;;23.70;78.80;;;;;;5073960;28;20048;-70
2023/07/18 01:02:49;;;;;;;6.65;2.60;;;23.70;81.40;;;;;;5069717;28;20041;-71
2023/07/18 01:05:19;;;;;;;6.47;2.72;;;23.90;81.80;;;;;;5066654;28;20367;-73
2023/07/18 01:07:45;;;;;;;6.55;2.70;;;23.80;81.30;;;;;;5071269;28;20367;-71
2023/07/18 01:10:25;;;;;;;6.55;2.75;;;23.80;81.40;;;;;;5071739;28;20072;-67
2023/07/18 01:12:58;;;;;;;4.85;2.42;;;23.70;77.80;;;;;;5071955;28;22035;-68
2023/07/18 01:15:24;;;;;;;5.75;2.67;;;23.80;81.30;;;;;;5068820;28;20109;-67
2023/07/18 01:17:50;;;;;;;6.00;2.63;;;23.70;81.40;;;;;;5071419;28;20064;-68
2023/07/18 01:20:29;;;;;;;4.68;2.22;;;23.80;78.70;;;;;;5070451;28;20036;-67
2023/07/18 01:22:57;;;;;;;5.88;2.63;;;23.60;81.20;;;;;;5073268;28;20403;-66
2023/07/18 01:25:22;;;;;;;4.90;2.40;;;23.70;79.20;;;;;;5067932;28;20084;-69
2023/07/18 01:27:50;;;;;;;5.75;2.60;;;23.80;81.40;;;;;;5072908;28;20071;-67
2023/07/18 01:30:21;;;;;;;6.13;2.50;;;23.80;78.60;;;;;;5070985;28;20118;-64
2023/07/18 01:32:50;;;;;;;7.03;2.42;;;23.80;79.30;;;;;;5070946;28;20084;-67
2023/07/18 01:35:17;;;;;;;6.50;2.92;;;23.70;81.70;;;;;;5063594;28;20512;-64
2023/07/18 01:37:46;;;;;;;6.88;2.72;;;23.70;79.20;;;;;;5068019;28;20048;-66
2023/07/18 01:40:13;;;;;;;5.82;2.53;;;23.70;81.40;;;;;;5054739;28;20040;-66
2023/07/18 01:42:40;;;;;;;5.75;2.40;;;23.50;81.30;;;;;;5073069;28;20110;-67
2023/07/18 01:45:06;;;;;;;6.03;2.22;;;23.60;81.40;;;;;;5072061;28;20041;-66
2023/07/18 01:47:33;;;;;;;5.97;2.88;;;23.70;81.50;;;;;;5074100;28;20469;-68
2023/07/18 01:49:59;;;;;;;5.30;2.42;;;23.80;81.70;;;;;;5074973;28;20124;-67
2023/07/18 01:52:28;;;;;;;5.47;2.47;;;23.60;82.00;;;;;;5093099;28;20080;-67
2023/07/18 01:54:57;;;;;;;6.43;2.30;;;23.70;81.50;;;;;;5088165;28;20052;-63
2023/07/18 01:57:40;;;;;;;6.63;2.55;;;23.80;79.20;;;;;;5092587;28;20557;-63
2023/07/18 02:00:18;;;;;;;7.60;2.70;;;23.50;77.70;;;;;;5094381;28;20477;-63
2023/07/18 02:02:48;;;;;;;7.18;2.38;;;23.60;81.70;;;;;;5093324;28;20047;-64
2023/07/18 02:05:18;;;;;;;5.75;2.33;;;23.40;81.30;;;;;;5080162;28;20044;-63
2023/07/18 02:07:44;;;;;;;7.50;2.65;;;;;;;;;;5061183;28;20766;-63
2023/07/18 02:10:11;;;;;;;5.28;2.30;;;23.50;81.90;;;;;;5074737;28;20081;-65
2023/07/18 02:12:37;;;;;;;5.97;2.55;;;23.50;81.40;;;;;;5087563;28;20044;-64
2023/07/18 02:15:05;;;;;;;4.80;2.42;;;23.60;79.20;;;;;;5092315;28;20123;-68
2023/07/18 02:17:32;;;;;;;5.25;2.22;;;23.50;78.90;;;;;;5087447;28;20486;-63
2023/07/18 02:19:58;;;;;;;6.07;2.60;;;23.60;81.80;;;;;;5064988;28;20044;-62
2023/07/18 02:22:25;;;;;;;6.68;2.58;;;23.50;81.50;;;;;;5090599;28;20136;-64
2023/07/18 02:24:50;;;;;;;6.43;2.35;;;23.60;81.50;;;;;;5092308;28;20048;-63
2023/07/18 02:27:18;;;;;;;5.90;2.60;;;23.50;81.70;;;;;;5084769;28;20040;-70
2023/07/18 02:29:46;;;;;;;4.75;2.33;;;23.50;79.20;;;;;;5088586;28;20051;-70
2023/07/18 02:32:13;;;;;;;6.30;2.58;;;23.60;79.30;;;;;;5089735;28;20147;-71
2023/07/18 02:34:39;;;;;;;5.10;2.28;;;23.50;81.70;;;;;;5092446;28;20044;-70
2023/07/18 02:37:06;;;;;;;7.10;2.90;;;23.50;81.70;;;;;;5091572;28;20190;-64
2023/07/18 02:39:32;;;;;;;5.50;2.50;;;23.70;81.80;;;;;;5083349;28;20051;-63
2023/07/18 02:41:58;;;;;;;7.10;2.72;;;23.50;81.60;;;;;;5091184;28;20077;-63
2023/07/18 02:44:24;;;;;;;7.22;2.78;;;23.50;81.60;;;;;;5087678;28;20114;-64
2023/07/18 02:46:50;;;;;;;7.97;2.40;;;23.40;81.70;;;;;;5079567;28;20497;-64
2023/07/18 02:49:15;;;;;;;5.70;2.40;;;23.50;81.80;;;;;;5073546;28;20037;-65
2023/07/18 02:51:41;;;;;;;6.78;2.40;;;23.60;82.50;;;;;;5085401;28;20059;-63
2023/07/18 02:54:07;;;;;;;5.45;2.47;;;23.40;82.10;;;;;;5082054;28;20040;-65
2023/07/18 02:56:34;;;;;;;6.90;2.63;;;23.40;81.70;;;;;;5092824;28;20481;-64
2023/07/18 02:59:00;;;;;;;5.93;2.28;;;23.40;81.80;;;;;;5093647;28;20123;-64
2023/07/18 03:01:26;;;;;;;5.57;2.40;;;23.50;81.90;;;;;;5086770;28;20170;-64
2023/07/18 03:03:53;;;;;;;6.20;2.53;;;23.40;81.90;;;;;;5085621;28;20184;-66
2023/07/18 03:06:19;;;;;;;6.93;3.15;;;23.40;81.80;;;;;;5093553;28;20425;-63
2023/07/18 03:08:45;;;;;;;7.25;2.95;;;23.40;81.90;;;;;;5093179;28;20047;-63
2023/07/18 03:11:10;;;;;;;6.30;3.30;;;23.50;82.10;;;;;;5091196;28;20047;-64
2023/07/18 03:13:36;;;;;;;7.07;3.55;;;23.20;81.70;;;;;;5091655;28;20044;-64
2023/07/18 03:16:04;;;;;;;6.78;3.38;;;23.40;81.90;;;;;;5091769;28;20052;-64
2023/07/18 03:18:30;;;;;;;5.40;2.90;;;23.50;82.30;;;;;;5074571;28;20040;-63
2023/07/18 03:20:56;;;;;;;8.10;3.58;;;23.40;81.80;;;;;;5090458;28;20461;-65
2023/07/18 03:23:22;;;;;;;6.82;3.13;;;23.30;81.90;;;;;;5088386;28;20128;-64
2023/07/18 03:25:48;;;;;;;8.07;3.67;;;23.50;81.90;;;;;;5090245;28;20051;-64
2023/07/18 03:28:14;;;;;;;7.95;3.33;;;23.30;78.40;;;;;;5089820;28;20052;-63
2023/07/18 03:30:40;;;;;;;8.20;3.70;;;23.30;81.80;;;;;;5092447;28;20044;-63
2023/07/18 03:33:06;;;;;;;8.32;3.20;;;23.40;81.80;;;;;;5090323;28;20101;-64
2023/07/18 03:35:32;;;;;;;8.15;3.90;;;23.70;78.50;;;;;;5085053;28;20048;-64
2023/07/18 03:37:58;;;;;;;6.15;3.10;;;23.20;81.70;;;;;;5077588;28;20056;-64
2023/07/18 03:40:24;;;;;;;7.28;3.42;;;23.30;81.90;;;;;;5072718;28;20127;-64
2023/07/18 03:42:50;;;;;;;8.30;3.55;;;23.40;81.90;;;;;;5075646;28;20068;-64
2023/07/18 03:45:16;;;;;;;7.38;2.95;;;23.30;81.80;;;;;;5090774;28;20036;-63
2023/07/18 03:47:42;;;;;;;7.05;3.28;;;23.50;82.00;;;;;;5093252;28;20048;-63
2023/07/18 03:50:11;;;;;;;7.40;2.90;;;23.30;79.10;;;;;;5090646;28;20504;-64
2023/07/18 03:52:37;;;;;;;7.82;2.90;;;23.30;81.90;;;;;;5090854;28;20624;-63
2023/07/18 03:55:04;;;;;;;6.85;2.60;;;23.50;82.10;;;;;;5079669;28;20127;-64
2023/07/18 03:57:33;;;;;;;6.18;2.45;;;23.30;82.30;;;;;;5087733;28;20062;-65
2023/07/18 03:59:59;;;;;;;7.55;3.05;;;23.30;82.00;;;;;;5095931;28;20482;-63
2023/07/18 04:02:25;;;;;;;5.40;2.60;;;23.40;82.00;;;;;;5095942;28;20047;-63
2023/07/18 04:04:51;;;;;;;6.00;2.88;;;;;;;;;;5093622;28;20069;-64
2023/07/18 04:07:18;;;;;;;7.32;3.00;;;23.30;81.80;;;;;;5095872;28;20392;-64
2023/07/18 04:09:44;;;;;;;6.78;2.63;;;23.30;81.80;;;;;;5080966;28;20087;-63
2023/07/18 04:12:10;;;;;;;6.28;2.65;;;23.40;82.00;;;;;;5091822;28;20075;-64
2023/07/18 04:14:35;;;;;;;6.72;2.85;;;23.30;82.00;;;;;;5084456;28;20036;-65
2023/07/18 04:17:02;;;;;;;6.68;2.70;;;23.30;82.10;;;;;;5091428;28;20055;-64
2023/07/18 04:19:29;;;;;;;6.22;2.28;;;;;;;;;;5086045;28;20044;-68
2023/07/18 04:21:55;;;;;;;6.13;2.45;;;23.40;82.00;;;;;;5092023;28;20420;-66
2023/07/18 04:24:21;;;;;;;6.00;2.50;;;23.50;81.90;;;;;;5093053;28;20036;-66
2023/07/18 04:26:47;;;;;;;7.82;2.60;;;23.40;82.60;;;;;;5089953;28;20570;-64
2023/07/18 04:29:13;;;;;;;6.28;2.60;;;23.40;81.90;;;;;;5089001;28;20073;-64
2023/07/18 04:31:38;;;;;;;5.00;2.15;;;23.40;82.00;;;;;;5093493;28;20108;-64
2023/07/18 04:34:04;;;;;;;6.78;2.38;;;23.30;81.70;;;;;;5087242;28;20052;-64
2023/07/18 04:36:30;;;;;;;6.97;2.50;;;23.30;79.30;;;;;;5091752;28;20097;-65
2023/07/18 04:38:56;;;;;;;6.55;2.58;;;23.40;82.20;;;;;;5079385;28;20055;-66
2023/07/18 04:41:22;;;;;;;6.60;2.30;;;23.40;81.80;;;;;;5088786;28;20154;-64
2023/07/18 04:43:47;;;;;;;7.65;2.78;;;23.40;81.90;;;;;;5094758;28;20044;-64
2023/07/18 04:46:13;;;;;;;6.75;2.38;;;23.40;81.80;;;;;;5081421;28;20055;-63
2023/07/18 04:48:40;;;;;;;7.85;2.53;;;23.40;79.40;;;;;;5075630;28;20037;-71
2023/07/18 04:51:06;;;;;;;6.75;2.50;;;23.50;81.80;;;;;;5083328;28;20056;-63
2023/07/18 04:53:32;;;;;;;7.70;2.55;;;23.60;81.80;;;;;;5095924;28;20040;-62
2023/07/18 04:55:59;;;;;;;6.55;2.53;;;23.50;81.60;;;;;;5095240;28;20048;-63
2023/07/18 04:58:26;;;;;;;7.20;2.80;;;23.80;82.20;;;;;;5086848;28;20048;-63
2023/07/18 05:00:53;;;;;;;7.05;2.40;;;23.50;82.10;;;;;;5093974;28;20079;-63
2023/07/18 05:03:19;;;;;;;6.93;2.33;;;23.80;81.70;;;;;;5094348;28;20436;-63
2023/07/18 05:05:45;;;;;;;8.35;2.50;;;23.50;81.30;;;;;;5092668;28;20048;-63
2023/07/18 05:08:11;;;;;;;6.40;2.40;;;23.90;81.60;;;;;;5083405;28;20040;-64
2023/07/18 05:10:36;;;;;;;6.93;2.47;;;23.90;81.60;;;;;;5092406;28;20044;-64
2023/07/18 05:13:02;;;;;;;7.63;2.10;;;23.80;82.30;;;;;;5094036;28;20040;-64
2023/07/18 05:15:28;;;;;;;5.60;2.15;;;23.70;82.30;;;;;;5092408;28;20047;-63
2023/07/18 05:17:54;;;;;;;5.63;2.13;;;23.70;78.70;;;;;;5088131;28;20063;-64
2023/07/18 05:20:20;;;;;;;4.20;1.90;;;23.80;81.20;;;;;;5058298;28;21275;-66
2023/07/18 05:22:46;;;;;;;6.78;2.40;;;23.90;78.90;;;;;;5092716;28;20075;-62
2023/07/18 05:25:14;;;;;;;7.82;2.05;;;23.90;78.90;;;;;;5091751;28;20075;-61
2023/07/18 05:27:40;;;;;;;6.40;2.38;;;24.00;79.40;;;;;;5083697;28;20046;-64
2023/07/18 05:30:11;;;;;;;5.10;2.25;;;23.90;81.50;;;;;;5077715;28;20032;-61
2023/07/18 05:32:37;;;;;;;5.78;2.30;;;24.00;79.40;;;;;;5085853;28;20044;-63
2023/07/18 05:35:03;;;;;;;6.32;2.30;;;24.30;81.80;;;;;;5091942;28;20036;-67
2023/07/18 05:37:30;;;;;;;6.47;2.38;;;24.10;78.40;;;;;;5091402;28;20389;-61
2023/07/18 05:39:56;;;;;;;8.20;2.35;;;24.40;81.00;;;;;;5092658;28;20040;-62
2023/07/18 05:42:22;;;;;;;6.38;2.63;;;24.30;81.30;;;;;;5092311;28;20036;-62
2023/07/18 05:44:48;;;;;;;6.47;2.22;;;24.40;81.10;;;;;;5092183;28;20380;-61
2023/07/18 05:47:15;;;;;;;6.70;2.28;;;24.30;81.10;;;;;;5091487;28;21132;-63
2023/07/18 05:49:41;;;;;;;4.95;2.30;;;24.50;81.00;;;;;;5094388;28;20052;-63
2023/07/18 05:52:07;;;;;;;8.20;2.28;;;24.30;78.10;;;;;;5090882;28;20502;-63
2023/07/18 05:54:33;;;;;;;5.68;2.25;;;24.60;78.00;;;;;;5079333;28;20045;-61
2023/07/18 05:56:59;;;;;;;6.28;2.00;;;24.50;78.00;;;;;;5089654;28;20040;-65
2023/07/18 05:59:26;;;;;;;6.10;2.30;;;24.40;80.80;;;;;;5075437;28;20047;-62
2023/07/18 06:01:51;;;;;;;6.85;2.20;;;24.60;78.20;;;;;;5091552;28;20120;-64
2023/07/18 06:04:17;;;;;;;8.13;2.40;;;24.50;78.00;;;;;;5094736;28;20086;-60
2023/07/18 06:06:43;;;;;;;6.80;2.13;;;24.50;78.10;;;;;;5092328;28;20066;-62
2023/07/18 06:09:09;;;;;;;6.15;2.13;;;24.30;80.70;;;;;;5091954;28;20108;-63
2023/07/18 06:11:35;;;;;;;6.28;2.30;;;24.50;77.90;;;;;;5092209;28;20051;-64
2023/07/18 06:14:01;;;;;;;5.35;2.30;;;24.30;76.70;;;;;;5093097;28;20040;-64
2023/07/18 06:16:27;;;;;;;5.70;2.13;;;24.40;81.00;;;;;;5079111;28;20043;-62
2023/07/18 06:18:54;;;;;;;4.38;2.10;;;24.40;78.00;;;;;;5091582;28;20055;-64
2023/07/18 06:21:19;;;;;;;5.50;2.13;;;24.30;78.00;;;;;;5087849;28;20040;-64
2023/07/18 06:23:45;;;;;;;5.13;2.30;;;24.40;80.60;;;;;;5090713;28;20044;-68
2023/07/18 06:26:11;;;;;;;5.07;2.17;;;24.20;77.70;;;;;;5079953;28;20039;-64
2023/07/18 06:28:37;;;;;;;5.97;2.00;;;24.30;77.70;;;;;;5075573;28;20044;-65
2023/07/18 06:31:03;;;;;;;4.00;1.92;;;24.40;81.00;;;;;;5078984;28;20704;-63
2023/07/18 06:33:29;;;;;;;5.80;2.20;;;24.50;77.20;;;;;;5071987;28;20048;-62
2023/07/18 06:35:56;;;;;;;4.65;2.17;;;24.50;77.40;;;;;;5057026;28;20036;-61
2023/07/18 06:38:22;;;;;;;6.72;2.17;;;24.60;78.10;;;;;;5091209;28;20109;-68
2023/07/18 06:40:50;;;;;;;6.00;2.50;;;24.60;80.50;;;;;;5088843;28;20052;-63
2023/07/18 06:43:17;;;;;;;5.38;2.30;;;24.60;80.80;;;;;;5089997;28;20072;-65
2023/07/18 06:45:46;;;;;;;5.72;2.17;;;24.40;80.90;;;;;;5072745;28;20043;-65
2023/07/18 06:48:15;;;;;;;8.70;2.60;;;24.60;77.90;;;;;;5072488;28;20051;-62
2023/07/18 06:50:52;;;;;;;4.95;2.30;;;24.70;80.50;;;;;;5075317;28;20459;-69
2023/07/18 06:53:19;;;;;;;6.05;2.28;;;25.10;78.40;;;;;;5089969;28;20121;-67
2023/07/18 06:55:49;;;;;;;7.35;2.33;;;25.10;80.60;;;;;;5072448;28;20049;-69
2023/07/18 06:58:15;;;;;;;5.57;2.08;;;24.90;77.80;;;;;;5076309;28;20051;-64
2023/07/18 07:00:41;;;;;;;6.00;2.25;;;24.80;77.60;;;;;;5081171;28;20098;-60
2023/07/18 07:03:08;;;;;;;6.03;2.30;;;24.80;77.30;;;;;;5086025;28;20477;-61
2023/07/18 07:05:38;;;;;;;5.22;2.17;;;24.70;77.50;;;;;;5092209;28;20098;-61
2023/07/18 07:08:08;;;;;;;6.55;2.30;;;24.60;77.50;;;;;;5091602;28;20048;-63
2023/07/18 07:10:40;;;;;;;6.85;2.50;;;24.80;80.70;;;;;;5090189;28;20032;-62
2023/07/18 07:13:06;;;;;;;6.40;2.45;;;24.80;77.70;;;;;;5088449;28;20404;-61
2023/07/18 07:15:33;;;;;;;7.38;2.58;;;25.10;77.30;;;;;;5091850;28;20052;-63
2023/07/18 07:17:59;;;;;;;7.93;2.80;;;25.00;77.00;;;;;;5092151;28;20040;-60
2023/07/18 07:20:25;;;;;;;6.68;2.58;;;25.00;77.50;;;;;;5090694;28;20115;-69
2023/07/18 07:22:53;;;;;;;5.97;2.60;;;24.80;76.50;;;;;;5090887;28;20042;-67
2023/07/18 07:25:19;;;;;;;7.35;2.67;;;25.40;77.60;;;;;;5085225;28;20044;-69
2023/07/18 07:27:46;;;;;;;6.97;2.55;;;25.00;77.60;;;;;;5081584;28;20550;-63
2023/07/18 07:30:15;;;;;;;7.28;2.58;;;25.00;77.20;;;;;;5091614;28;20044;-64
2023/07/18 07:32:44;;;;;;;7.35;2.80;;;25.00;77.30;;;;;;5092766;28;20105;-60
2023/07/18 07:35:09;;;;;;;7.28;2.95;;;25.10;77.60;;;;;;5094925;28;20097;-61
2023/07/18 07:37:36;;;;;;;7.43;2.40;;;24.90;77.00;;;;;;5089318;28;20040;-61
2023/07/18 07:40:06;;;;;;;7.10;2.65;;;25.30;77.50;;;;;;5087269;28;20044;-61
2023/07/18 07:42:32;;;;;;;8.50;2.40;;;25.40;77.50;;;;;;5074421;28;20048;-64
2023/07/18 07:44:58;;;;;;;6.10;2.80;;;25.60;77.30;;;;;;5091866;28;20460;-63
2023/07/18 07:47:24;;;;;;;7.25;2.70;;;25.40;77.10;;;;;;5096369;28;20047;-63
2023/07/18 07:49:50;;;;;;;9.35;3.00;;;25.30;76.80;;;;;;5096928;28;20043;-61
2023/07/18 07:52:16;;;;;;;6.45;2.72;;;25.80;76.70;;;;;;5085860;28;20130;-61
2023/07/18 07:54:44;;;;;;;7.57;2.50;;;25.80;76.90;;;;;;5084805;28;20048;-63
2023/07/18 07:57:10;;;;;;;6.18;2.42;;;25.70;76.80;;;;;;5090995;28;20424;-62
2023/07/18 07:59:36;;;;;;;6.28;2.60;;;25.70;77.60;;;;;;5096742;28;20040;-61
2023/07/18 08:02:03;;;;;;;6.68;2.78;;;25.90;76.50;;;;;;5093450;28;20051;-62
2023/07/18 08:04:28;;;;;;;15.00;4.43;;;25.90;76.70;;;;;;5090640;28;20044;-64
2023/07/18 08:06:55;;;;;;;11.88;4.18;;;25.90;76.80;;;;;;5095231;28;20046;-62
2023/07/18 08:09:22;;;;;;;7.18;3.03;;;25.60;76.70;;;;;;5085571;28;20064;-61
2023/07/18 08:11:48;;;;;;;16.98;4.90;;;25.60;76.70;;;;;;5061538;28;20103;-61
2023/07/18 08:14:15;;;;;;;11.48;4.20;;;26.00;77.30;;;;;;5095578;28;20048;-64
2023/07/18 08:16:41;;;;;;;10.45;4.05;;;25.70;77.10;;;;;;5094527;28;20486;-61
2023/07/18 08:19:11;;;;;;;11.15;3.53;;;25.80;77.10;;;;;;5095644;28;20040;-61
2023/07/18 08:21:37;;;;;;;11.98;3.22;;;25.70;77.40;;;;;;5081434;28;20052;-65
2023/07/18 08:24:03;;;;;;;11.18;3.55;;;25.50;77.20;;;;;;5093748;28;20050;-68
2023/07/18 08:26:29;;;;;;;9.13;3.10;;;25.50;76.90;;;;;;5093927;28;20036;-64
2023/07/18 08:28:54;;;;;;;13.07;3.58;;;25.60;77.00;;;;;;5095632;28;20591;-64
2023/07/18 08:31:20;;;;;;;10.15;3.50;;;25.90;77.20;;;;;;5095314;28;20052;-62
2023/07/18 08:33:46;;;;;;;10.80;2.92;;;26.00;77.00;;;;;;5093185;28;20042;-63
2023/07/18 08:36:12;;;;;;;6.47;2.55;;;25.60;76.70;;;;;;5085784;28;20392;-62
2023/07/18 08:38:38;;;;;;;10.65;2.58;;;25.50;76.90;;;;;;5095558;28;20554;-63
2023/07/18 08:41:04;;;;;;;7.65;2.70;;;25.60;76.80;;;;;;5090462;28;20048;-62
2023/07/18 08:43:33;;;;;;;8.77;2.80;;;25.80;76.30;;;;;;5091239;28;20048;-61
2023/07/18 08:45:59;;;;;;;9.93;3.10;;;25.80;76.70;;;;;;5094487;28;20105;-62
2023/07/18 08:48:25;;;;;;;9.68;3.20;;;25.60;76.20;;;;;;5085915;28;20040;-64
2023/07/18 08:50:52;;;;;;;8.25;2.90;;;24.70;75.70;;;;;;5081167;28;20079;-69
2023/07/18 08:53:18;;;;;;;9.13;2.42;;;25.60;76.30;;;;;;5091480;28;20051;-70
2023/07/18 08:55:44;;;;;;;7.78;2.90;;;25.60;75.90;;;;;;5093030;28;20039;-67
2023/07/18 08:58:10;;;;;;;7.78;2.22;;;25.90;76.20;;;;;;5093926;28;20052;-67
2023/07/18 09:00:36;;;;;;;13.23;2.55;;;25.90;75.70;;;;;;5086527;28;20044;-63
2023/07/18 09:03:01;;;;;;;10.25;3.15;;;26.00;74.80;;;;;;5050722;28;20043;-62
2023/07/18 09:05:37;;;;;;;6.93;2.33;;;26.00;75.00;;;;;;5094956;28;20044;-61
2023/07/18 09:08:04;;;;;;;7.28;2.00;;;25.90;75.00;;;;;;5092847;28;20051;-71
2023/07/18 09:10:30;;;;;;;8.52;2.30;;;26.00;74.40;;;;;;5082897;28;20107;-63
2023/07/18 09:13:07;;;;;;;6.80;2.33;;;25.90;73.90;;;;;;5080022;28;20100;-63
2023/07/18 09:15:37;;;;;;;5.90;1.90;;;26.10;74.30;;;;;;5095000;28;20048;-61
2023/07/18 09:18:04;;;;;;;8.00;2.20;;;26.20;74.30;;;;;;5084309;28;20040;-61
2023/07/18 09:20:30;;;;;;;6.20;2.17;;;26.20;74.20;;;;;;5092906;28;20485;-61
2023/07/18 09:22:57;;;;;;;6.20;2.20;;;26.00;74.00;;;;;;5073979;28;20135;-61
2023/07/18 09:25:24;;;;;;;9.10;2.40;;;26.20;74.30;;;;;;5040242;28;20391;-61
2023/07/18 09:27:53;;;;;;;9.23;2.40;;;26.10;74.10;;;;;;5075884;28;20045;-61
2023/07/18 09:30:23;;;;;;;7.47;2.50;;;26.10;74.10;;;;;;5094447;28;20145;-63
2023/07/18 09:32:52;;;;;;;6.78;2.20;;;26.20;74.40;;;;;;5094338;28;20074;-61
2023/07/18 09:35:18;;;;;;;8.10;2.20;;;26.40;74.10;;;;;;5077200;28;20041;-65
2023/07/18 09:37:48;;;;;;;8.57;2.72;;;25.90;73.20;;;;;;5085825;28;20039;-61
2023/07/18 09:40:15;;;;;;;5.47;2.10;;;26.10;73.20;;;;;;5091596;28;20051;-62
2023/07/18 09:42:45;;;;;;;6.75;2.20;;;25.90;72.90;;;;;;5094578;28;20123;-61
2023/07/18 09:45:15;;;;;;;6.57;2.20;;;26.00;72.80;;;;;;5093040;28;20585;-61
2023/07/18 09:47:42;;;;;;;5.85;2.10;;;26.30;72.50;;;;;;5082969;28;20059;-60
2023/07/18 09:50:09;;;;;;;9.02;2.45;;;26.20;72.40;;;;;;5070089;28;20133;-62
2023/07/18 09:52:36;;;;;;;5.70;2.20;;;26.00;72.60;;;;;;5076129;28;20055;-62
2023/07/18 09:55:04;;;;;;;7.10;2.20;;;25.90;72.40;;;;;;5092770;28;20040;-64
2023/07/18 09:57:30;;;;;;;5.72;2.00;;;26.00;72.90;;;;;;5076109;28;20429;-73
2023/07/18 09:59:58;;;;;;;9.32;2.50;;;26.10;72.90;;;;;;5073052;28;20036;-60
2023/07/18 10:02:23;;;;;;;6.38;2.17;;;25.80;73.00;;;;;;5090895;28;20095;-68
2023/07/18 10:04:49;;;;;;;6.53;2.47;;;25.80;72.80;;;;;;5092028;28;20067;-61
2023/07/18 10:07:15;;;;;;;7.93;2.22;;;25.80;73.00;;;;;;5074125;28;20075;-68
2023/07/18 10:09:41;;;;;;;8.27;2.17;;;25.80;73.10;;;;;;5079669;28;20048;-72
2023/07/18 10:12:08;;;;;;;8.00;2.42;;;25.80;73.50;;;;;;5093415;28;20079;-61
2023/07/18 10:14:43;;;;;;;7.22;2.60;;;25.90;73.60;;;;;;5080028;28;20052;-66
2023/07/18 10:17:08;;;;;;;5.05;2.13;;;25.40;73.80;;;;;;5089735;28;20050;-70
2023/07/18 10:19:47;;;;;;;9.98;2.85;;;25.80;73.90;;;;;;5092629;28;20460;-67
2023/07/18 10:22:25;;;;;;;8.32;2.15;;;25.60;74.60;;;;;;5093039;28;20077;-72
2023/07/18 10:24:51;;;;;;;9.88;2.40;;;25.40;74.40;;;;;;5087105;28;20093;-70
2023/07/18 10:27:16;;;;;;;5.35;1.83;;;25.40;73.90;;;;;;5091171;28;20044;-63
2023/07/18 10:30:03;;;;;;;24.02;3.80;;;25.30;73.90;;;;;;5084217;28;20195;-62
2023/07/18 10:32:32;;;;;;;11.27;2.40;;;25.40;74.40;;;;;;5091634;28;20142;-69
2023/07/18 10:34:59;;;;;;;12.38;2.63;;;25.40;74.60;;;;;;5083718;28;20513;-61
2023/07/18 10:37:26;;;;;;;12.90;2.92;;;25.10;74.50;;;;;;5087807;28;20081;-76
2023/07/18 10:39:52;;;;;;;8.82;2.58;;;25.00;74.30;;;;;;5071562;28;20065;-71
2023/07/18 10:42:26;;;;;;;12.02;2.22;;;25.00;74.40;;;;;;5089761;28;20123;-68
2023/07/18 10:44:58;;;;;;;8.25;2.45;;;25.00;74.90;;;;;;5092795;28;20378;-68
2023/07/18 10:47:25;;;;;;;11.18;2.47;;;24.80;75.10;;;;;;5092732;28;20052;-63
2023/07/18 10:49:51;;;;;;;8.55;2.55;;;24.80;74.60;;;;;;5084965;28;20048;-67
2023/07/18 10:52:17;;;;;;;8.20;2.40;;;25.10;74.50;;;;;;5068881;28;20051;-66
2023/07/18 10:54:54;;;;;;;10.43;2.53;;;25.10;75.30;;;;;;5072377;28;20087;-67
2023/07/18 10:57:27;;;;;;;9.45;2.60;;;24.90;75.40;;;;;;5072398;28;20109;-69
2023/07/18 10:59:53;;;;;;;10.75;2.63;;;24.90;75.60;;;;;;5086040;28;20075;-63
2023/07/18 11:02:19;;;;;;;7.60;2.60;;;25.10;75.40;;;;;;5086250;28;20078;-62
2023/07/18 11:04:46;;;;;;;7.35;2.60;;;24.80;75.80;;;;;;5072320;28;20040;-62
2023/07/18 11:07:12;;;;;;;12.75;2.85;;;25.10;75.80;;;;;;5072379;28;20402;-69
2023/07/18 11:09:38;;;;;;;6.97;2.30;;;25.00;75.60;;;;;;5081767;28;20044;-64
2023/07/18 11:12:04;;;;;;;8.35;2.75;;;25.10;75.60;;;;;;5092008;28;20036;-73
2023/07/18 11:14:39;;;;;;;8.32;2.85;;;25.10;75.40;;;;;;5092754;28;20046;-70
2023/07/18 11:17:12;;;;;;;9.02;2.63;;;25.00;76.00;;;;;;5090203;28;20090;-73
2023/07/18 11:19:38;;;;;;;9.07;2.55;;;25.00;76.30;;;;;;5087289;28;20055;-65
2023/07/18 11:22:05;;;;;;;6.63;2.50;;;25.50;75.80;;;;;;5092203;28;20051;-63
2023/07/18 11:24:31;;;;;;;8.32;2.40;;;25.30;76.00;;;;;;5092323;28;20094;-72
2023/07/18 11:27:19;;;;;;;7.18;2.40;;;25.50;75.90;;;;;;5091376;28;20181;-73
2023/07/18 11:29:56;;;;;;;8.23;2.70;;;25.50;74.90;;;;;;5090861;28;20044;-71
2023/07/18 11:32:45;;;;;;;9.00;2.60;;;25.60;76.40;;;;;;5090048;28;20115;-69
2023/07/18 11:35:21;;;;;;;6.78;2.10;;;25.70;75.00;;;;;;5077000;28;20076;-75
2023/07/18 11:37:51;;;;;;;7.57;2.15;;;25.40;76.30;;;;;;5089700;28;20143;-73
2023/07/18 11:40:21;;;;;;;5.88;2.55;;;25.70;76.00;;;;;;5082776;28;20089;-63
2023/07/18 11:42:57;;;;;;;9.55;2.30;;;25.40;76.30;;;;;;5088484;28;20040;-62
2023/07/18 11:45:25;;;;;;;7.80;2.60;;;25.70;79.40;;;;;;5092113;28;20044;-70
2023/07/18 11:47:55;;;;;;;8.77;2.42;;;25.60;76.00;;;;;;5092448;28;20044;-71
2023/07/18 11:50:23;;;;;;;7.82;2.28;;;25.40;74.40;;;;;;5080903;28;20545;-74
2023/07/18 11:52:52;;;;;;;9.05;2.30;;;25.70;75.80;;;;;;5071940;28;20052;-69
2023/07/18 11:55:19;;;;;;;6.97;2.20;;;25.40;76.20;;;;;;5071865;28;20055;-70
2023/07/18 11:57:45;;;;;;;7.07;2.15;;;25.70;76.30;;;;;;5071545;28;20127;-68
2023/07/18 12:00:12;;;;;;;7.20;2.20;;;25.60;76.20;;;;;;5080126;28;20123;-68
2023/07/18 12:02:38;;;;;;;13.95;3.00;;;25.70;76.10;;;;;;5091209;28;20571;-63
2023/07/18 12:05:05;;;;;;;13.57;2.85;;;25.70;76.30;;;;;;5071888;28;20131;-70
2023/07/18 12:07:31;;;;;;;12.30;2.95;;;25.30;76.00;;;;;;5080837;28;20059;-59
2023/07/18 12:09:57;;;;;;;7.75;2.78;;;25.30;76.30;;;;;;5091555;28;20398;-63
2023/07/18 12:12:23;;;;;;;12.90;2.78;;;25.50;75.90;;;;;;5091710;28;20048;-71
2023/07/18 12:14:50;;;;;;;8.55;2.45;;;25.30;75.90;;;;;;5091458;28;20048;-69
2023/07/18 12:17:16;;;;;;;7.95;2.38;;;25.40;76.40;;;;;;5091625;28;20432;-69
2023/07/18 12:19:43;;;;;;;12.85;2.25;;;25.20;79.40;;;;;;5095213;28;20082;-69
2023/07/18 12:22:09;;;;;;;5.07;2.08;;;25.20;76.30;;;;;;5095685;28;20048;-70
2023/07/18 12:24:35;;;;;;;9.02;2.50;;;25.20;75.90;;;;;;5084570;28;20082;-61
2023/07/18 12:27:00;;;;;;;6.55;2.38;;;25.40;76.00;;;;;;5094424;28;20044;-73
2023/07/18 12:29:26;;;;;;;8.55;2.40;;;25.20;75.90;;;;;;5094502;28;20040;-69
2023/07/18 12:31:53;;;;;;;7.93;2.53;;;25.40;76.10;;;;;;5095649;28;20401;-75
2023/07/18 12:34:19;;;;;;;8.00;2.75;;;25.40;76.10;;;;;;5095234;28;20036;-67
2023/07/18 12:36:45;;;;;;;6.78;2.10;;;25.30;75.80;;;;;;5081704;28;20048;-73
2023/07/18 12:39:12;;;;;;;6.85;2.17;;;25.40;75.90;;;;;;5092520;28;20390;-73
2023/07/18 12:41:38;;;;;;;6.05;2.42;;;25.10;79.60;;;;;;5082798;28;20432;-66
2023/07/18 12:44:04;;;;;;;6.20;1.83;;;25.30;76.50;;;;;;5075119;28;20045;-68
2023/07/18 12:46:30;;;;;;;4.68;2.13;;;25.10;76.40;;;;;;5080201;28;20051;-69
2023/07/18 12:48:57;;;;;;;6.40;2.08;;;24.90;76.50;;;;;;5093980;28;20040;-71